createdAt,value
2016-10-12T00:00:08.244Z,97.15
2016-10-12T00:01:07.902Z,96.71
2016-10-12T00:02:07.631Z,96.37
2016-10-12T00:03:08.286Z,96.38
2016-10-12T00:04:07.910Z,95.87
2016-10-12T00:05:07.531Z,96.03
2016-10-12T00:06:08.237Z,96.26
2016-10-12T00:07:07.868Z,96.38
2016-10-12T00:08:07.575Z,96.79
2016-10-12T00:09:08.198Z,96.16
2016-10-12T00:10:07.840Z,96.14
2016-10-12T00:11:07.515Z,96.88
2016-10-12T00:12:08.131Z,96.87
2016-10-12T00:13:07.817Z,95.90
2016-10-12T00:14:07.471Z,95.64
2016-10-12T00:15:08.184Z,95.54
2016-10-12T00:16:07.800Z,95.04
2016-10-12T00:17:07.523Z,95.38
2016-10-12T00:18:08.268Z,95.21
2016-10-12T00:19:07.948Z,95.55
2016-10-12T00:20:07.593Z,95.81
2016-10-12T00:21:08.273Z,95.57
2016-10-12T00:22:07.888Z,95.82
2016-10-12T00:23:07.599Z,95.61
2016-10-12T00:24:08.178Z,95.47
2016-10-12T00:25:07.843Z,95.65
2016-10-12T00:26:07.492Z,95.64
2016-10-12T00:27:08.155Z,95.56
2016-10-12T00:28:07.802Z,96.12
2016-10-12T00:29:07.432Z,96.03
2016-10-12T00:30:08.096Z,96.54
2016-10-12T00:31:07.769Z,96.08
2016-10-12T00:32:07.407Z,96.26
2016-10-12T00:33:08.079Z,96.08
2016-10-12T00:34:07.711Z,95.70
2016-10-12T00:35:08.351Z,96.03
2016-10-12T00:36:08.049Z,96.06
2016-10-12T00:37:07.659Z,95.69
2016-10-12T00:38:08.401Z,95.91
2016-10-12T00:39:08.039Z,96.52
2016-10-12T00:40:07.655Z,96.36
2016-10-12T00:41:08.301Z,96.25
2016-10-12T00:42:07.963Z,96.56
2016-10-12T00:43:07.678Z,96.65
2016-10-12T00:44:08.292Z,96.46
2016-10-12T00:45:07.969Z,96.60
2016-10-12T00:46:07.629Z,96.94
2016-10-12T00:47:08.310Z,96.76
2016-10-12T00:48:08.018Z,97.24
2016-10-12T00:49:07.636Z,96.87
2016-10-12T00:50:08.303Z,97.29
2016-10-12T00:51:07.998Z,97.01
2016-10-12T00:52:07.642Z,97.41
2016-10-12T00:53:08.314Z,97.34
2016-10-12T00:54:07.912Z,97.38
2016-10-12T00:55:07.566Z,97.20
2016-10-12T00:56:08.216Z,97.41
2016-10-12T00:57:07.935Z,97.01
2016-10-12T00:58:07.574Z,96.63
2016-10-12T00:59:08.203Z,96.56
2016-10-12T01:00:07.845Z,96.17
2016-10-12T01:01:07.485Z,97.02
2016-10-12T01:02:08.147Z,97.02
2016-10-12T01:03:07.855Z,96.47
2016-10-12T01:04:07.481Z,97.07
2016-10-12T01:05:08.133Z,97.14
2016-10-12T01:06:08.043Z,96.80
2016-10-12T01:07:07.504Z,96.48
2016-10-12T01:08:08.209Z,96.31
2016-10-12T01:09:07.831Z,96.30
2016-10-12T01:10:07.513Z,96.18
2016-10-12T01:11:08.184Z,96.29
2016-10-12T01:12:07.925Z,96.96
2016-10-12T01:13:07.507Z,96.90
2016-10-12T01:14:08.094Z,97.20
2016-10-12T01:15:07.774Z,97.27
2016-10-12T01:16:07.425Z,97.62
2016-10-12T01:17:08.165Z,97.61
2016-10-12T01:18:07.919Z,96.80
2016-10-12T01:19:07.510Z,96.59
2016-10-12T01:20:08.164Z,96.69
2016-10-12T01:21:07.993Z,96.58
2016-10-12T01:22:07.544Z,97.00
2016-10-12T01:23:08.241Z,97.83
2016-10-12T01:24:07.847Z,97.01
2016-10-12T01:25:07.530Z,96.88
2016-10-12T01:26:08.217Z,96.84
2016-10-12T01:27:07.831Z,96.82
2016-10-12T01:28:07.545Z,96.81
2016-10-12T01:29:08.122Z,96.66
2016-10-12T01:30:07.758Z,96.52
2016-10-12T01:31:07.428Z,96.22
2016-10-12T01:32:08.045Z,96.30
2016-10-12T01:33:07.795Z,96.50
2016-10-12T01:34:07.440Z,96.38
2016-10-12T01:35:08.062Z,96.52
2016-10-12T01:36:07.772Z,96.71
2016-10-12T01:37:07.416Z,95.95
2016-10-12T01:38:08.140Z,95.96
2016-10-12T01:39:07.750Z,96.20
2016-10-12T01:40:07.420Z,95.88
2016-10-12T01:41:08.045Z,95.73
2016-10-12T01:42:07.717Z,96.75
2016-10-12T01:43:08.400Z,96.55
2016-10-12T01:44:08.017Z,96.49
2016-10-12T01:45:07.708Z,96.89
2016-10-12T01:46:08.345Z,97.21
2016-10-12T01:47:08.046Z,97.23
2016-10-12T01:48:07.728Z,96.88
2016-10-12T01:49:08.312Z,97.11
2016-10-12T01:50:07.995Z,97.27
2016-10-12T01:51:07.636Z,97.54
2016-10-12T01:52:08.251Z,97.35
2016-10-12T01:53:07.942Z,97.31
2016-10-12T01:54:07.563Z,97.32
2016-10-12T01:55:08.216Z,97.01
2016-10-12T01:56:07.902Z,96.72
2016-10-12T01:57:07.542Z,97.00
2016-10-12T01:58:08.263Z,96.60
2016-10-12T01:59:07.866Z,96.45
2016-10-12T02:00:07.544Z,96.57
2016-10-12T02:01:08.207Z,96.75
2016-10-12T02:02:07.880Z,96.95
2016-10-12T02:03:07.581Z,97.01
2016-10-12T02:04:08.178Z,96.56
2016-10-12T02:05:07.885Z,96.44
2016-10-12T02:06:07.564Z,96.79
2016-10-12T02:07:08.157Z,97.28
2016-10-12T02:08:07.861Z,97.35
2016-10-12T02:09:07.471Z,97.42
2016-10-12T02:10:08.138Z,97.37
2016-10-12T02:11:07.810Z,96.85
2016-10-12T02:12:07.463Z,97.15
2016-10-12T02:13:08.222Z,96.89
2016-10-12T02:14:07.830Z,97.14
2016-10-12T02:15:07.471Z,97.14
2016-10-12T02:16:08.121Z,97.33
2016-10-12T02:17:07.886Z,97.32
2016-10-12T02:18:07.671Z,97.73
2016-10-12T02:19:08.250Z,96.91
2016-10-12T02:20:07.920Z,96.77
2016-10-12T02:21:07.663Z,96.90
2016-10-12T02:22:08.236Z,96.95
2016-10-12T02:23:07.943Z,97.05
2016-10-12T02:24:07.580Z,96.94
2016-10-12T02:25:08.226Z,97.50
2016-10-12T02:26:07.851Z,97.78
2016-10-12T02:27:07.526Z,97.97
2016-10-12T02:28:08.204Z,97.88
2016-10-12T02:29:07.843Z,97.34
2016-10-12T02:30:07.510Z,97.20
2016-10-12T02:31:08.146Z,96.79
2016-10-12T02:32:07.806Z,96.61
2016-10-12T02:33:07.574Z,96.78
2016-10-12T02:34:08.174Z,96.91
2016-10-12T02:35:07.783Z,96.98
2016-10-12T02:36:07.493Z,97.54
2016-10-12T02:37:08.106Z,96.90
2016-10-12T02:38:07.776Z,96.64
2016-10-12T02:39:07.384Z,96.92
2016-10-12T02:40:08.030Z,97.16
2016-10-12T02:41:07.744Z,96.94
2016-10-12T02:42:08.351Z,96.98
2016-10-12T02:43:08.051Z,97.39
2016-10-12T02:44:07.667Z,97.24
2016-10-12T02:45:08.345Z,97.85
2016-10-12T02:46:07.969Z,97.78
2016-10-12T02:47:07.625Z,97.34
2016-10-12T02:48:08.325Z,97.00
2016-10-12T02:49:07.963Z,96.99
2016-10-12T02:50:07.567Z,97.45
2016-10-12T02:51:08.296Z,97.72
2016-10-12T02:52:07.893Z,97.47
2016-10-12T02:53:07.598Z,97.62
2016-10-12T02:54:08.226Z,97.45
2016-10-12T02:55:07.899Z,97.20
2016-10-12T02:56:07.566Z,95.99
2016-10-12T02:57:08.204Z,96.89
2016-10-12T02:58:07.890Z,96.88
2016-10-12T02:59:07.530Z,96.81
2016-10-12T03:00:08.201Z,96.96
2016-10-12T03:01:07.908Z,97.57
2016-10-12T03:02:07.485Z,96.99
2016-10-12T03:03:08.204Z,96.94
2016-10-12T03:04:07.780Z,97.18
2016-10-12T03:05:07.491Z,97.20
2016-10-12T03:06:08.163Z,96.75
2016-10-12T03:07:07.762Z,96.66
2016-10-12T03:08:07.589Z,97.09
2016-10-12T03:09:08.150Z,96.60
2016-10-12T03:10:07.766Z,96.92
2016-10-12T03:11:07.446Z,97.45
2016-10-12T03:12:08.109Z,98.05
2016-10-12T03:13:07.790Z,97.79
2016-10-12T03:14:08.350Z,98.04
2016-10-12T03:15:08.006Z,97.44
2016-10-12T03:16:07.641Z,97.84
2016-10-12T03:17:08.429Z,97.46
2016-10-12T03:18:08.172Z,97.59
2016-10-12T03:19:07.796Z,96.81
2016-10-12T03:20:07.434Z,96.64
2016-10-12T03:21:08.110Z,97.01
2016-10-12T03:22:07.773Z,97.60
2016-10-12T03:23:07.450Z,97.77
2016-10-12T03:24:08.012Z,97.57
2016-10-12T03:25:07.689Z,96.91
2016-10-12T03:26:08.344Z,96.73
2016-10-12T03:27:07.978Z,96.96
2016-10-12T03:28:07.709Z,97.02
2016-10-12T03:29:08.310Z,97.52
2016-10-12T03:30:07.984Z,97.38
2016-10-12T03:31:07.627Z,96.37
2016-10-12T03:32:08.284Z,96.80
2016-10-12T03:33:08.016Z,96.87
2016-10-12T03:34:07.601Z,96.25
2016-10-12T03:35:08.248Z,96.43
2016-10-12T03:36:07.978Z,96.79
2016-10-12T03:37:07.565Z,97.51
2016-10-12T03:38:08.281Z,97.50
2016-10-12T03:39:13.482Z,96.69
2016-10-12T03:40:07.547Z,96.71
2016-10-12T03:41:08.233Z,97.16
2016-10-12T03:42:07.869Z,97.03
2016-10-12T03:43:07.563Z,97.14
2016-10-12T03:44:08.121Z,96.68
2016-10-12T03:45:07.848Z,96.15
2016-10-12T03:46:07.553Z,96.71
2016-10-12T03:47:08.150Z,97.15
2016-10-12T03:48:07.899Z,96.84
2016-10-12T03:49:07.575Z,97.04
2016-10-12T03:50:08.126Z,96.70
2016-10-12T03:51:07.842Z,96.61
2016-10-12T03:52:07.494Z,96.29
2016-10-12T03:53:08.210Z,96.11
2016-10-12T03:54:07.833Z,96.34
2016-10-12T03:55:07.483Z,97.22
2016-10-12T03:56:08.152Z,97.49
2016-10-12T03:57:07.803Z,97.32
2016-10-12T03:58:07.477Z,97.30
2016-10-12T03:59:08.046Z,97.09
2016-10-12T04:00:07.794Z,97.47
2016-10-12T04:01:07.421Z,97.72
2016-10-12T04:02:08.027Z,97.34
2016-10-12T04:03:07.701Z,97.27
2016-10-12T04:04:08.363Z,97.43
2016-10-12T04:05:08.019Z,97.89
2016-10-12T04:06:07.715Z,98.07
2016-10-12T04:07:08.312Z,97.66
2016-10-12T04:08:08.062Z,97.95
2016-10-12T04:09:08.776Z,97.72
2016-10-12T04:10:08.335Z,97.06
2016-10-12T04:11:08.015Z,97.35
2016-10-12T04:12:07.628Z,97.35
2016-10-12T04:13:08.337Z,97.59
2016-10-12T04:14:07.895Z,97.48
2016-10-12T04:15:07.621Z,97.44
2016-10-12T04:16:08.271Z,96.75
2016-10-12T04:17:07.989Z,96.81
2016-10-12T04:18:07.763Z,96.93
2016-10-12T04:19:08.374Z,97.39
2016-10-12T04:20:08.012Z,96.73
2016-10-12T04:21:07.718Z,96.92
2016-10-12T04:22:08.316Z,97.20
2016-10-12T04:23:07.989Z,96.35
2016-10-12T04:24:07.613Z,96.40
2016-10-12T04:25:10.940Z,96.36
2016-10-12T04:26:07.744Z,96.89
2016-10-12T04:27:07.424Z,96.73
2016-10-12T04:28:08.108Z,96.14
2016-10-12T04:29:07.711Z,96.11
2016-10-12T04:30:07.404Z,96.03
2016-10-12T04:31:08.083Z,95.87
2016-10-12T04:32:07.724Z,95.76
2016-10-12T04:33:07.446Z,95.85
2016-10-12T04:34:08.066Z,95.93
2016-10-12T04:35:07.722Z,95.74
2016-10-12T04:36:07.445Z,96.20
2016-10-12T04:37:08.064Z,96.14
2016-10-12T04:38:07.753Z,95.82
2016-10-12T04:39:08.385Z,95.81
2016-10-12T04:40:08.037Z,95.61
2016-10-12T04:41:07.626Z,95.91
2016-10-12T04:42:08.278Z,95.85
2016-10-12T04:43:08.003Z,95.78
2016-10-12T04:44:07.627Z,96.10
2016-10-12T04:45:08.300Z,96.20
2016-10-12T04:46:08.033Z,95.66
2016-10-12T04:47:07.627Z,95.49
2016-10-12T04:48:08.338Z,95.61
2016-10-12T04:49:08.030Z,95.71
2016-10-12T04:50:07.593Z,95.72
2016-10-12T04:51:08.273Z,95.98
2016-10-12T04:52:07.892Z,95.73
2016-10-12T04:53:07.610Z,96.38
2016-10-12T04:54:08.250Z,95.89
2016-10-12T04:55:07.887Z,96.02
2016-10-12T04:56:07.527Z,96.19
2016-10-12T04:57:08.161Z,96.53
2016-10-12T04:58:07.838Z,96.34
2016-10-12T04:59:07.489Z,96.44
2016-10-12T05:00:08.097Z,96.14
2016-10-12T05:01:07.908Z,96.24
2016-10-12T05:02:07.397Z,96.25
2016-10-12T05:03:08.112Z,96.14
2016-10-12T05:04:07.676Z,95.84
2016-10-12T05:05:08.332Z,96.24
2016-10-12T05:06:08.018Z,96.40
2016-10-12T05:07:07.630Z,96.62
2016-10-12T05:08:08.319Z,96.51
2016-10-12T05:09:07.957Z,96.69
2016-10-12T05:10:07.586Z,96.18
2016-10-12T05:11:08.247Z,96.79
2016-10-12T05:12:07.954Z,96.90
2016-10-12T05:13:07.646Z,96.84
2016-10-12T05:14:08.164Z,96.54
2016-10-12T05:15:07.897Z,96.86
2016-10-12T05:16:07.593Z,96.96
2016-10-12T05:17:08.270Z,97.01
2016-10-12T05:18:13.589Z,97.18
2016-10-12T05:19:07.680Z,97.43
2016-10-12T05:20:08.292Z,97.56
2016-10-12T05:21:07.979Z,97.45
2016-10-12T05:22:07.627Z,96.65
2016-10-12T05:23:08.376Z,96.81
2016-10-12T05:24:07.958Z,97.06
2016-10-12T05:25:07.614Z,96.60
2016-10-12T05:26:08.204Z,96.79
2016-10-12T05:27:07.889Z,97.31
2016-10-12T05:28:07.545Z,97.89
2016-10-12T05:29:08.108Z,97.64
2016-10-12T05:30:07.760Z,97.74
2016-10-12T05:31:07.435Z,97.54
2016-10-12T05:32:08.065Z,97.71
2016-10-12T05:33:07.762Z,97.65
2016-10-12T05:34:08.412Z,97.69
2016-10-12T05:35:08.011Z,97.25
2016-10-12T05:36:07.681Z,97.82
2016-10-12T05:37:08.250Z,97.25
2016-10-12T05:38:07.970Z,97.22
2016-10-12T05:39:07.562Z,96.28
2016-10-12T05:40:08.252Z,96.60
2016-10-12T05:41:07.921Z,96.92
2016-10-12T05:42:07.600Z,97.04
2016-10-12T05:43:08.439Z,96.63
2016-10-12T05:44:13.436Z,96.62
2016-10-12T05:45:07.582Z,96.27
2016-10-12T05:46:08.257Z,96.69
2016-10-12T05:47:07.905Z,96.89
2016-10-12T05:48:07.623Z,96.81
2016-10-12T05:49:08.249Z,97.03
2016-10-12T05:50:07.865Z,96.78
2016-10-12T05:51:07.614Z,96.84
2016-10-12T05:52:13.748Z,96.40
2016-10-12T05:53:07.860Z,96.30
2016-10-12T05:54:07.483Z,96.86
2016-10-12T05:55:08.197Z,96.75
2016-10-12T05:56:07.821Z,96.68
2016-10-12T05:57:07.519Z,96.62
2016-10-12T05:58:08.152Z,96.78
2016-10-12T05:59:07.735Z,96.56
2016-10-12T06:00:07.373Z,96.40
2016-10-12T06:01:08.010Z,96.27
2016-10-12T06:02:07.805Z,97.04
2016-10-12T06:03:07.491Z,97.50
2016-10-12T06:04:08.107Z,96.78
2016-10-12T06:05:07.771Z,96.91
2016-10-12T06:06:07.452Z,97.58
2016-10-12T06:07:08.099Z,98.16
2016-10-12T06:08:07.811Z,98.04
2016-10-12T06:09:07.370Z,97.55
2016-10-12T06:10:08.031Z,97.38
2016-10-12T06:11:07.673Z,96.98
2016-10-12T06:12:08.369Z,96.76
2016-10-12T06:13:08.105Z,96.63
2016-10-12T06:14:07.658Z,96.17
2016-10-12T06:15:08.338Z,95.60
2016-10-12T06:16:08.005Z,96.12
2016-10-12T06:17:07.746Z,96.09
2016-10-12T06:18:07.512Z,96.52
2016-10-12T06:19:08.112Z,96.34
2016-10-12T06:20:07.752Z,96.38
2016-10-12T06:21:07.420Z,96.92
2016-10-12T06:22:08.075Z,96.96
2016-10-12T06:23:07.719Z,96.74
2016-10-12T06:24:08.322Z,97.01
2016-10-12T06:25:07.943Z,97.02
2016-10-12T06:26:07.568Z,97.13
2016-10-12T06:27:08.255Z,97.39
2016-10-12T06:28:07.937Z,96.91
2016-10-12T06:29:07.470Z,96.35
2016-10-12T06:30:08.147Z,95.44
2016-10-12T06:31:07.770Z,95.71
2016-10-12T06:32:07.457Z,95.78
2016-10-12T06:33:08.165Z,95.45
2016-10-12T06:34:07.861Z,95.54
2016-10-12T06:35:07.423Z,95.35
2016-10-12T06:36:08.132Z,95.53
2016-10-12T06:37:07.782Z,96.09
2016-10-12T06:38:07.420Z,95.63
2016-10-12T06:39:08.034Z,95.39
2016-10-12T06:40:07.669Z,95.26
2016-10-12T06:41:08.309Z,95.88
2016-10-12T06:42:07.976Z,96.14
2016-10-12T06:43:07.688Z,96.35
2016-10-12T06:44:08.245Z,96.06
2016-10-12T06:45:07.861Z,96.51
2016-10-12T06:46:07.492Z,96.23
2016-10-12T06:47:08.122Z,95.70
2016-10-12T06:48:07.858Z,95.26
2016-10-12T06:49:07.456Z,95.51
2016-10-12T06:50:08.126Z,95.94
2016-10-12T06:51:07.798Z,95.66
2016-10-12T06:52:07.405Z,95.13
2016-10-12T06:53:08.103Z,95.73
2016-10-12T06:54:07.708Z,95.99
2016-10-12T06:55:07.430Z,95.96
2016-10-12T06:56:08.095Z,95.94
2016-10-12T06:57:07.710Z,95.57
2016-10-12T06:58:08.417Z,95.60
2016-10-12T06:59:07.959Z,95.65
2016-10-12T07:00:07.649Z,96.19
2016-10-12T07:01:08.277Z,96.31
2016-10-12T07:02:07.943Z,96.23
2016-10-12T07:03:07.688Z,96.07
2016-10-12T07:04:08.274Z,95.98
2016-10-12T07:05:07.912Z,96.38
2016-10-12T07:06:07.598Z,96.09
2016-10-12T07:07:08.242Z,96.41
2016-10-12T07:08:07.930Z,96.22
2016-10-12T07:09:07.534Z,96.04
2016-10-12T07:10:08.184Z,96.20
2016-10-12T07:11:07.792Z,96.30
2016-10-12T07:12:07.496Z,96.23
2016-10-12T07:13:08.189Z,96.26
2016-10-12T07:14:07.842Z,96.12
2016-10-12T07:15:07.546Z,95.82
2016-10-12T07:16:08.121Z,96.08
2016-10-12T07:17:07.844Z,96.08
2016-10-12T07:18:07.583Z,96.31
2016-10-12T07:19:08.183Z,96.17
2016-10-12T07:20:07.821Z,96.17
2016-10-12T07:21:07.528Z,96.58
2016-10-12T07:22:08.133Z,96.51
2016-10-12T07:23:07.818Z,96.64
2016-10-12T07:24:07.561Z,96.75
2016-10-12T07:25:08.117Z,96.37
2016-10-12T07:26:07.788Z,96.30
2016-10-12T07:27:07.477Z,96.06
2016-10-12T07:28:08.176Z,95.53
2016-10-12T07:29:07.819Z,95.74
2016-10-12T07:30:07.407Z,95.66
2016-10-12T07:31:08.057Z,96.17
2016-10-12T07:32:07.677Z,95.85
2016-10-12T07:33:08.404Z,95.88
2016-10-12T07:34:08.015Z,95.31
2016-10-12T07:35:07.773Z,95.18
2016-10-12T07:36:08.380Z,95.08
2016-10-12T07:37:07.979Z,95.06
2016-10-12T07:38:07.662Z,93.96
2016-10-12T07:39:08.392Z,94.10
2016-10-12T07:40:07.964Z,93.66
2016-10-12T07:41:07.607Z,93.51
2016-10-12T07:42:08.253Z,93.22
2016-10-12T07:43:07.873Z,93.41
2016-10-12T07:44:07.548Z,93.36
2016-10-12T07:45:08.206Z,93.64
2016-10-12T07:46:07.813Z,93.93
2016-10-12T07:47:07.474Z,93.08
2016-10-12T07:48:08.158Z,91.54
2016-10-12T07:49:07.846Z,91.20
2016-10-12T07:50:07.520Z,92.49
2016-10-12T07:51:08.222Z,91.36
2016-10-12T07:52:07.807Z,91.78
2016-10-12T07:53:07.449Z,91.85
2016-10-12T07:54:08.247Z,92.28
2016-10-12T07:55:07.890Z,91.89
2016-10-12T07:56:07.554Z,90.70
2016-10-12T07:57:08.203Z,90.24
2016-10-12T07:58:07.841Z,90.53
2016-10-12T07:59:07.502Z,90.85
2016-10-12T08:00:08.163Z,91.39
2016-10-12T08:01:07.817Z,92.36
2016-10-12T08:02:07.441Z,89.97
2016-10-12T08:03:08.072Z,89.53
2016-10-12T08:04:07.796Z,89.95
2016-10-12T08:05:07.415Z,91.58
2016-10-12T08:06:08.092Z,91.68
2016-10-12T08:07:07.734Z,91.31
2016-10-12T08:08:08.408Z,91.12
2016-10-12T08:09:08.096Z,90.72
2016-10-12T08:10:07.649Z,89.84
2016-10-12T08:11:08.339Z,91.01
2016-10-12T08:12:08.005Z,90.70
2016-10-12T08:13:07.656Z,90.95
2016-10-12T08:14:08.306Z,90.42
2016-10-12T08:15:07.976Z,91.40
2016-10-12T08:16:07.602Z,91.05
2016-10-12T08:17:08.319Z,90.28
2016-10-12T08:18:08.089Z,91.85
2016-10-12T08:19:07.765Z,90.80
2016-10-12T08:20:07.423Z,91.95
2016-10-12T08:21:08.097Z,91.68
2016-10-12T08:22:07.699Z,90.52
2016-10-12T08:23:08.351Z,91.87
2016-10-12T08:24:08.063Z,92.35
2016-10-12T08:25:07.676Z,92.65
2016-10-12T08:26:08.342Z,91.75
2016-10-12T08:27:08.005Z,91.19
2016-10-12T08:28:07.811Z,91.02
2016-10-12T08:29:07.506Z,91.89
2016-10-12T08:30:07.414Z,91.52
2016-10-12T08:31:08.132Z,91.04
2016-10-12T08:32:07.695Z,90.55
2016-10-12T08:33:08.358Z,89.53
2016-10-12T08:34:08.058Z,89.09
2016-10-12T08:35:07.818Z,90.47
2016-10-12T08:36:08.415Z,92.71
2016-10-12T08:37:08.032Z,91.49
2016-10-12T08:38:07.690Z,90.45
2016-10-12T08:39:08.363Z,89.92
2016-10-12T08:40:07.966Z,92.45
2016-10-12T08:41:07.640Z,87.77
2016-10-12T08:42:08.311Z,88.77
2016-10-12T08:43:07.977Z,89.97
2016-10-12T08:44:07.656Z,88.17
2016-10-12T08:45:08.261Z,87.90
2016-10-12T08:46:07.953Z,86.79
2016-10-12T08:47:07.574Z,87.55
2016-10-12T08:48:08.253Z,87.69
2016-10-12T08:49:07.935Z,87.10
2016-10-12T08:50:07.577Z,87.56
2016-10-12T08:51:08.283Z,88.46
2016-10-12T08:52:07.908Z,88.73
2016-10-12T08:53:07.519Z,87.71
2016-10-12T08:54:08.236Z,87.65
2016-10-12T08:55:07.827Z,89.32
2016-10-12T08:56:07.494Z,88.67
2016-10-12T08:57:08.147Z,89.62
2016-10-12T08:58:07.899Z,89.51
2016-10-12T08:59:07.449Z,90.03
2016-10-12T09:00:08.184Z,88.82
2016-10-12T09:01:07.722Z,88.54
2016-10-12T09:02:07.412Z,88.90
2016-10-12T09:03:08.027Z,88.69
2016-10-12T09:04:07.706Z,89.04
2016-10-12T09:05:08.343Z,88.18
2016-10-12T09:06:08.015Z,88.77
2016-10-12T09:07:07.652Z,89.52
2016-10-12T09:08:08.307Z,88.42
2016-10-12T09:09:07.977Z,86.39
2016-10-12T09:10:07.593Z,86.35
2016-10-12T09:11:08.244Z,86.14
2016-10-12T09:12:07.903Z,87.72
2016-10-12T09:13:07.577Z,88.03
2016-10-12T09:14:08.216Z,85.67
2016-10-12T09:15:07.805Z,85.78
2016-10-12T09:16:07.416Z,86.36
2016-10-12T09:17:08.154Z,85.81
2016-10-12T09:18:07.912Z,85.08
2016-10-12T09:19:07.609Z,84.37
2016-10-12T09:20:08.233Z,85.90
2016-10-12T09:21:07.906Z,87.64
2016-10-12T09:22:07.506Z,85.58
2016-10-12T09:23:13.721Z,83.72
2016-10-12T09:24:07.862Z,82.41
2016-10-12T09:25:07.460Z,81.49
2016-10-12T09:26:08.118Z,80.58
2016-10-12T09:27:07.771Z,81.23
2016-10-12T09:28:07.465Z,81.34
2016-10-12T09:29:08.203Z,80.99
2016-10-12T09:30:07.811Z,81.95
2016-10-12T09:31:07.465Z,83.34
2016-10-12T09:32:08.172Z,80.22
2016-10-12T09:33:07.810Z,80.11
2016-10-12T09:34:07.512Z,80.69
2016-10-12T09:35:08.145Z,80.47
2016-10-12T09:36:07.865Z,82.47
2016-10-12T09:37:07.526Z,81.23
2016-10-12T09:38:08.047Z,81.77
2016-10-12T09:39:07.847Z,80.89
2016-10-12T09:40:08.353Z,81.48
2016-10-12T09:41:07.964Z,84.25
2016-10-12T09:42:07.672Z,82.14
2016-10-12T09:43:08.325Z,82.44
2016-10-12T09:44:07.999Z,83.14
2016-10-12T09:45:07.637Z,83.53
2016-10-12T09:46:08.271Z,81.76
2016-10-12T09:47:07.945Z,83.36
2016-10-12T09:48:07.632Z,82.54
2016-10-12T09:49:08.339Z,82.93
2016-10-12T09:50:07.934Z,83.89
2016-10-12T09:51:07.646Z,83.27
2016-10-12T09:52:08.254Z,84.31
2016-10-12T09:53:07.900Z,83.21
2016-10-12T09:54:07.605Z,82.94
2016-10-12T09:55:08.227Z,79.40
2016-10-12T09:56:07.874Z,78.80
2016-10-12T09:57:07.528Z,79.65
2016-10-12T09:58:08.122Z,80.31
2016-10-12T09:59:07.903Z,79.65
2016-10-12T10:00:08.028Z,80.31
2016-10-12T10:01:07.734Z,80.21
2016-10-12T10:02:08.355Z,80.12
2016-10-12T10:03:07.981Z,79.99
2016-10-12T10:04:07.705Z,82.63
2016-10-12T10:05:08.305Z,81.78
2016-10-12T10:06:08.026Z,83.33
2016-10-12T10:07:07.635Z,82.47
2016-10-12T10:08:08.277Z,79.55
2016-10-12T10:09:07.980Z,80.39
2016-10-12T10:10:07.600Z,78.93
2016-10-12T10:11:08.908Z,78.58
2016-10-12T10:12:07.923Z,78.11
2016-10-12T10:13:07.594Z,79.09
2016-10-12T10:14:08.278Z,80.48
2016-10-12T10:15:08.212Z,79.25
2016-10-12T10:16:07.923Z,79.55
2016-10-12T10:17:07.647Z,80.76
2016-10-12T10:18:08.366Z,79.74
2016-10-12T10:19:08.066Z,81.52
2016-10-12T10:20:07.686Z,83.47
2016-10-12T10:21:08.390Z,85.34
2016-10-12T10:22:08.006Z,86.61
2016-10-12T10:23:07.657Z,86.93
2016-10-12T10:24:08.361Z,84.37
2016-10-12T10:25:07.974Z,85.23
2016-10-12T10:26:07.605Z,86.45
2016-10-12T10:27:08.232Z,85.98
2016-10-12T10:28:07.889Z,85.91
2016-10-12T10:29:07.916Z,87.42
2016-10-12T10:30:07.522Z,85.80
2016-10-12T10:31:08.135Z,87.40
2016-10-12T10:32:07.808Z,88.97
2016-10-12T10:33:07.421Z,87.72
2016-10-12T10:34:08.105Z,88.15
2016-10-12T10:35:07.766Z,88.20
2016-10-12T10:36:07.457Z,88.71
2016-10-12T10:37:08.092Z,89.00
2016-10-12T10:38:07.750Z,87.47
2016-10-12T10:39:07.432Z,88.98
2016-10-12T10:40:08.048Z,89.42
2016-10-12T10:41:07.699Z,90.21
2016-10-12T10:42:08.344Z,89.77
2016-10-12T10:43:08.014Z,89.55
2016-10-12T10:44:08.002Z,89.73
2016-10-12T10:45:07.525Z,90.82
2016-10-12T10:46:08.146Z,89.29
2016-10-12T10:47:07.822Z,89.12
2016-10-12T10:48:07.435Z,89.19
2016-10-12T10:49:08.216Z,89.63
2016-10-12T10:50:07.796Z,90.21
2016-10-12T10:51:07.545Z,89.60
2016-10-12T10:52:08.126Z,88.51
2016-10-12T10:53:07.768Z,89.72
2016-10-12T10:54:07.473Z,88.72
2016-10-12T10:55:08.061Z,88.16
2016-10-12T10:56:07.737Z,87.87
2016-10-12T10:57:07.403Z,88.82
2016-10-12T10:58:08.102Z,89.91
2016-10-12T10:59:07.780Z,91.00
2016-10-12T11:00:07.517Z,90.64
2016-10-12T11:01:08.197Z,88.12
2016-10-12T11:02:07.846Z,88.92
2016-10-12T11:03:07.500Z,87.40
2016-10-12T11:04:08.183Z,88.07
2016-10-12T11:05:07.791Z,87.12
2016-10-12T11:06:07.487Z,86.56
2016-10-12T11:07:08.591Z,86.57
2016-10-12T11:08:07.710Z,86.08
2016-10-12T11:09:08.469Z,85.03
2016-10-12T11:10:08.023Z,86.07
2016-10-12T11:11:07.667Z,87.78
2016-10-12T11:12:08.324Z,87.77
2016-10-12T11:13:07.990Z,87.51
2016-10-12T11:14:07.650Z,87.04
2016-10-12T11:15:07.446Z,86.61
2016-10-12T11:16:08.054Z,86.64
2016-10-12T11:17:07.771Z,85.45
2016-10-12T11:18:07.504Z,87.48
2016-10-12T11:19:08.148Z,85.55
2016-10-12T11:20:07.844Z,85.26
2016-10-12T11:21:07.481Z,84.08
2016-10-12T11:22:08.108Z,83.25
2016-10-12T11:23:07.756Z,83.02
2016-10-12T11:24:07.381Z,82.62
2016-10-12T11:25:08.064Z,82.42
2016-10-12T11:26:07.755Z,81.26
2016-10-12T11:27:08.380Z,81.70
2016-10-12T11:28:08.021Z,81.53
2016-10-12T11:29:07.726Z,82.70
2016-10-12T11:30:08.102Z,80.84
2016-10-12T11:31:07.690Z,80.38
2016-10-12T11:32:08.376Z,81.03
2016-10-12T11:33:08.155Z,81.03
2016-10-12T11:34:07.765Z,81.07
2016-10-12T11:35:07.430Z,80.89
2016-10-12T11:36:08.084Z,80.61
2016-10-12T11:37:07.686Z,82.54
2016-10-12T11:38:08.344Z,83.45
2016-10-12T11:39:08.046Z,81.00
2016-10-12T11:40:07.709Z,80.51
2016-10-12T11:41:08.317Z,79.86
2016-10-12T11:42:07.935Z,79.80
2016-10-12T11:43:07.614Z,78.60
2016-10-12T11:44:08.503Z,78.09
2016-10-12T11:45:08.007Z,80.77
2016-10-12T11:46:07.594Z,79.18
2016-10-12T11:47:08.253Z,75.93
2016-10-12T11:48:07.882Z,77.65
2016-10-12T11:49:07.506Z,78.59
2016-10-12T11:50:08.212Z,78.79
2016-10-12T11:51:07.844Z,76.88
2016-10-12T11:52:07.426Z,75.24
2016-10-12T11:53:08.097Z,74.74
2016-10-12T11:54:07.691Z,73.43
2016-10-12T11:55:08.377Z,72.10
2016-10-12T11:56:07.986Z,73.78
2016-10-12T11:57:07.635Z,73.29
2016-10-12T11:58:08.293Z,72.81
2016-10-12T11:59:07.942Z,72.42
2016-10-12T12:00:07.720Z,73.91
2016-10-12T12:01:08.292Z,73.84
2016-10-12T12:02:07.985Z,71.61
2016-10-12T12:03:07.608Z,72.25
2016-10-12T12:04:08.235Z,72.15
2016-10-12T12:05:07.904Z,72.90
2016-10-12T12:06:07.636Z,72.66
2016-10-12T12:07:08.177Z,74.57
2016-10-12T12:08:07.805Z,73.17
2016-10-12T12:09:07.483Z,73.84
2016-10-12T12:10:13.697Z,70.43
2016-10-12T12:11:07.821Z,70.14
2016-10-12T12:12:07.492Z,70.57
2016-10-12T12:13:08.158Z,64.55
2016-10-12T12:14:08.085Z,65.82
2016-10-12T12:15:07.794Z,66.79
2016-10-12T12:16:08.356Z,69.13
2016-10-12T12:17:08.076Z,69.85
2016-10-12T12:18:07.860Z,71.15
2016-10-12T12:19:07.470Z,73.25
2016-10-12T12:20:08.163Z,70.59
2016-10-12T12:21:07.803Z,71.97
2016-10-12T12:22:07.396Z,75.14
2016-10-12T12:23:08.036Z,74.66
2016-10-12T12:24:07.697Z,73.09
2016-10-12T12:25:08.376Z,77.36
2016-10-12T12:26:07.985Z,71.33
2016-10-12T12:27:07.589Z,71.95
2016-10-12T12:28:08.251Z,74.77
2016-10-12T12:29:07.867Z,73.54
2016-10-12T12:30:07.682Z,70.94
2016-10-12T12:31:08.290Z,71.94
2016-10-12T12:32:07.921Z,73.45
2016-10-12T12:33:07.602Z,72.17
2016-10-12T12:34:08.239Z,72.79
2016-10-12T12:35:07.914Z,76.27
2016-10-12T12:36:07.587Z,72.88
2016-10-12T12:37:08.190Z,74.12
2016-10-12T12:38:07.845Z,74.12
2016-10-12T12:39:07.484Z,76.75
2016-10-12T12:40:08.192Z,75.56
2016-10-12T12:41:07.785Z,77.58
2016-10-12T12:42:07.423Z,73.38
2016-10-12T12:43:08.082Z,74.63
2016-10-12T12:44:07.810Z,75.16
2016-10-12T12:45:07.631Z,73.10
2016-10-12T12:46:08.253Z,73.71
2016-10-12T12:47:07.878Z,74.04
2016-10-12T12:48:07.599Z,73.87
2016-10-12T12:49:08.237Z,74.23
2016-10-12T12:50:07.935Z,73.38
2016-10-12T12:51:07.601Z,72.78
2016-10-12T12:52:08.183Z,73.03